Time;durP1;ratioP1;P1;durP2;ratioP2;P2;SDS_P1;SDS_P2;PMS_P1;PMS_P2;Temp;Humidity;BMP_temperature;BMP_pressure;BME280_temperature;BME280_humidity;BME280_pressure;Samples;Min_cycle;Max_cycle;Signal;HPM_P1;HPM_P2
2021/05/05 00:00:48;;;;;;;1.90;0.88;;;;;;;8.67;38.74;99772.13;3530283;40;20403;-76
2021/05/05 00:03:15;;;;;;;2.05;0.90;;;;;;;8.65;38.87;99766.81;3536428;40;20058;-77
2021/05/05 00:05:43;;;;;;;2.78;1.10;;;;;;;8.66;38.81;99767.69;3525037;40;20027;-76
2021/05/05 00:08:10;;;;;;;2.42;1.00;;;;;;;8.67;38.76;99766.69;3535445;40;20058;-76
2021/05/05 00:10:37;;;;;;;1.38;0.80;;;;;;;8.67;38.72;99773.00;3523995;40;20058;-76
2021/05/05 00:13:05;;;;;;;1.73;0.82;;;;;;;8.66;38.39;99763.09;3526950;40;20304;-76
2021/05/05 00:15:33;;;;;;;1.90;0.90;;;;;;;8.67;38.67;99763.94;3528192;40;20055;-76
2021/05/05 00:18:00;;;;;;;1.25;0.90;;;;;;;8.67;38.58;99769.41;3528971;40;20290;-76
2021/05/05 00:20:28;;;;;;;2.83;0.90;;;;;;;8.65;38.62;99758.63;3532259;40;20083;-76
2021/05/05 00:22:56;;;;;;;1.85;0.73;;;;;;;8.66;38.65;99770.41;3530920;40;20118;-75
2021/05/05 00:25:23;;;;;;;3.10;1.08;;;;;;;8.64;38.45;99762.41;3535353;40;20467;-76
2021/05/05 00:27:51;;;;;;;1.33;0.90;;;;;;;8.66;38.47;99754.91;3539211;40;20114;-76
2021/05/05 00:30:21;;;;;;;1.80;1.00;;;;;;;8.67;38.41;99758.50;3532820;40;20137;-75
2021/05/05 00:32:50;;;;;;;2.50;0.82;;;;;;;8.65;38.45;99764.09;3526308;40;20052;-75
2021/05/05 00:35:17;;;;;;;2.92;1.10;;;;;;;8.62;38.26;99748.91;3533402;40;20054;-76
2021/05/05 00:37:45;;;;;;;1.25;0.90;;;;;;;8.59;38.18;99762.81;3531102;40;20027;-76
2021/05/05 00:40:14;;;;;;;2.10;1.00;;;;;;;8.58;38.10;99765.69;3528771;40;20404;-76
2021/05/05 00:42:41;;;;;;;2.33;0.90;;;;;;;8.57;38.26;99761.25;3524140;40;20420;-76
2021/05/05 00:45:11;;;;;;;1.42;1.10;;;;;;;8.55;38.31;99758.69;3532325;40;20038;-76
2021/05/05 00:47:39;;;;;;;1.85;0.90;;;;;;;8.52;38.29;99767.13;3528555;40;20043;-76
2021/05/05 00:50:11;;;;;;;1.65;0.80;;;;;;;8.52;38.27;99761.69;3529439;40;20070;-75
2021/05/05 00:52:39;;;;;;;1.95;0.85;;;;;;;8.48;38.13;99765.69;3529562;40;20035;-76
2021/05/05 00:55:09;;;;;;;2.22;1.00;;;;;;;8.48;38.21;99762.97;3529444;40;20047;-75
2021/05/05 00:57:38;;;;;;;1.52;1.00;;;;;;;8.46;38.18;99765.00;3528010;40;20341;-75
2021/05/05 01:00:08;;;;;;;1.38;0.80;;;;;;;8.46;37.97;99766.88;3530684;40;20057;-76
2021/05/05 01:02:37;;;;;;;2.78;1.20;;;;;;;8.44;38.11;99769.75;3531311;40;20138;-76
2021/05/05 01:05:08;;;;;;;1.92;0.90;;;;;;;8.45;38.15;99765.16;3537544;40;20035;-75
2021/05/05 01:07:36;;;;;;;1.38;0.82;;;;;;;8.40;38.17;99759.22;3529613;40;20091;-76
2021/05/05 01:10:09;;;;;;;2.53;1.08;;;;;;;8.38;38.43;99762.13;3525137;40;20050;-76
2021/05/05 01:12:37;;;;;;;1.85;0.95;;;;;;;8.35;38.09;99762.41;3533390;40;20042;-75
2021/05/05 01:15:06;;;;;;;1.45;0.90;;;;;;;8.33;38.10;99764.41;3534962;40;20047;-76
2021/05/05 01:17:35;;;;;;;4.78;1.30;;;;;;;8.31;38.19;99762.84;3530867;40;20149;-76
2021/05/05 01:20:08;;;;;;;3.28;1.15;;;;;;;8.30;38.19;99763.84;3529787;40;20059;-76
2021/05/05 01:22:37;;;;;;;2.28;0.90;;;;;;;8.28;38.37;99766.72;3530600;40;20126;-76
2021/05/05 01:25:06;;;;;;;2.35;1.05;;;;;;;8.27;38.38;99767.72;3534546;40;20415;-76
2021/05/05 01:27:34;;;;;;;2.30;1.00;;;;;;;8.25;38.47;99761.53;3527357;40;20051;-76
2021/05/05 01:30:03;;;;;;;2.70;0.90;;;;;;;8.24;38.46;99762.53;3530773;40;20095;-76
2021/05/05 01:32:32;;;;;;;2.45;0.93;;;;;;;8.25;38.40;99756.09;3524037;40;20675;-75
2021/05/05 01:35:00;;;;;;;2.47;1.00;;;;;;;8.27;38.67;99756.81;3533958;40;20050;-75
2021/05/05 01:37:28;;;;;;;1.88;0.90;;;;;;;8.25;38.61;99743.31;3530191;40;20137;-76
2021/05/05 01:39:57;;;;;;;2.58;1.23;;;;;;;8.30;38.66;99747.50;3521119;40;20061;-76
2021/05/05 01:42:25;;;;;;;2.38;1.30;;;;;;;8.29;38.69;99748.50;3533974;40;20062;-76
2021/05/05 01:44:52;;;;;;;2.30;1.10;;;;;;;8.29;38.87;99746.63;3520607;40;20067;-76
2021/05/05 01:47:20;;;;;;;2.83;1.30;;;;;;;8.30;38.68;99761.97;3530127;40;20063;-75
2021/05/05 01:49:49;;;;;;;2.80;1.02;;;;;;;8.32;38.78;99756.34;3529723;40;20083;-76
2021/05/05 01:52:20;;;;;;;3.13;1.20;;;;;;;8.35;38.88;99764.25;3522606;40;20324;-76
2021/05/05 01:54:49;;;;;;;2.45;1.30;;;;;;;8.31;38.73;99752.81;3513718;40;20053;-76
2021/05/05 01:57:32;;;;;;;2.33;1.25;;;;;;;8.33;39.48;99750.78;3526005;40;20055;-76
2021/05/05 02:00:07;;;;;;;3.38;1.30;;;;;;;8.29;39.17;99737.59;3527435;40;20063;-76
2021/05/05 02:02:44;;;;;;;2.10;1.23;;;;;;;8.25;39.11;99740.59;3533376;40;20430;-76
2021/05/05 02:05:17;;;;;;;2.40;1.33;;;;;;;8.25;39.14;99747.91;3526795;40;20397;-76
2021/05/05 02:07:56;;;;;;;2.88;1.70;;;;;;;8.22;39.24;99737.31;3535617;40;20051;-76
2021/05/05 02:10:24;;;;;;;1.95;1.40;;;;;;;8.22;39.30;99748.22;3527694;40;20035;-76
2021/05/05 02:12:53;;;;;;;2.83;1.50;;;;;;;8.20;39.36;99744.78;3521342;40;20122;-76
2021/05/05 02:15:23;;;;;;;2.58;1.20;;;;;;;8.16;39.20;99741.47;3531012;40;20443;-76
2021/05/05 02:17:55;;;;;;;2.50;1.63;;;;;;;8.13;39.42;99741.78;3529191;40;20055;-76
2021/05/05 02:20:24;;;;;;;2.33;1.30;;;;;;;8.15;39.77;99747.06;3528261;40;20055;-76
2021/05/05 02:22:53;;;;;;;2.67;1.40;;;;;;;8.11;39.52;99738.31;3528331;40;20358;-76
2021/05/05 02:25:20;;;;;;;3.40;1.50;;;;;;;8.12;39.62;99745.50;3531935;40;20102;-76
2021/05/05 02:27:50;;;;;;;4.35;1.70;;;;;;;8.11;39.45;99745.63;3542633;40;20054;-76
2021/05/05 02:30:40;;;;;;;3.35;1.50;;;;;;;8.08;39.68;99744.03;3529924;40;20100;-78
2021/05/05 02:33:15;;;;;;;4.07;1.60;;;;;;;8.07;39.61;99747.78;3533795;40;20199;-76
2021/05/05 02:35:44;;;;;;;3.38;1.65;;;;;;;8.06;39.27;99754.25;3526760;40;20096;-76
2021/05/05 02:38:14;;;;;;;3.40;1.50;;;;;;;8.06;39.49;99742.50;3529286;40;20055;-77
2021/05/05 02:40:43;;;;;;;3.45;1.65;;;;;;;8.03;39.14;99750.94;3532313;40;20055;-76
2021/05/05 02:43:11;;;;;;;2.90;1.52;;;;;;;8.01;39.33;99747.50;3525078;40;20220;-76
2021/05/05 02:45:41;;;;;;;2.47;1.65;;;;;;;8.00;39.49;99743.03;3529036;40;20051;-76
2021/05/05 02:48:10;;;;;;;2.80;1.52;;;;;;;7.98;39.39;99751.38;3529109;40;20042;-76
2021/05/05 02:50:40;;;;;;;3.00;1.65;;;;;;;7.97;39.32;99755.09;3527990;40;20333;-76
2021/05/05 02:53:07;;;;;;;3.17;1.38;;;;;;;7.95;39.44;99751.66;3544053;40;20110;-76
2021/05/05 02:55:34;;;;;;;2.90;1.50;;;;;;;7.93;39.41;99750.94;3528084;40;20035;-76
2021/05/05 02:58:02;;;;;;;2.58;1.33;;;;;;;7.92;39.33;99748.34;3523499;40;20057;-76
2021/05/05 03:00:30;;;;;;;3.80;1.40;;;;;;;7.91;39.13;99752.06;3530594;40;20059;-76
2021/05/05 03:03:01;;;;;;;2.53;1.60;;;;;;;7.92;39.30;99753.78;3528480;40;20055;-76
2021/05/05 03:05:29;;;;;;;3.13;1.45;;;;;;;7.91;39.33;99755.66;3529228;40;20053;-76
2021/05/05 03:07:56;;;;;;;3.33;1.40;;;;;;;7.90;39.20;99758.53;3528166;40;20347;-76
2021/05/05 03:10:24;;;;;;;3.30;1.25;;;;;;;7.87;39.43;99768.72;3528145;40;20042;-76
2021/05/05 03:12:51;;;;;;;2.80;1.50;;;;;;;7.87;39.43;99762.41;3533954;40;20043;-76
2021/05/05 03:15:19;;;;;;;4.35;1.52;;;;;;;7.85;39.30;99767.97;3527802;40;20376;-76
2021/05/05 03:17:52;;;;;;;3.53;1.77;;;;;;;7.84;39.41;99765.41;3528676;40;20067;-76
2021/05/05 03:20:21;;;;;;;3.80;2.00;;;;;;;7.83;39.16;99769.13;3528891;40;20042;-75
2021/05/05 03:22:48;;;;;;;4.32;1.90;;;;;;;7.80;39.31;99764.84;3530405;40;20078;-76
2021/05/05 03:25:16;;;;;;;5.15;2.00;;;;;;;7.77;39.34;99770.56;3530750;40;20161;-76
2021/05/05 03:27:43;;;;;;;4.68;1.60;;;;;;;7.77;39.65;99772.41;3532250;40;20083;-76
2021/05/05 03:30:11;;;;;;;2.80;1.50;;;;;;;7.74;39.42;99759.06;3533384;40;20058;-76
2021/05/05 03:32:38;;;;;;;3.00;1.75;;;;;;;7.73;39.51;99760.09;3527862;40;20050;-76
2021/05/05 03:35:07;;;;;;;3.05;1.70;;;;;;;7.73;39.46;99771.00;3536919;40;20059;-76
2021/05/05 03:37:35;;;;;;;3.17;1.80;;;;;;;7.71;39.50;99760.22;3535526;40;20113;-76
2021/05/05 03:40:07;;;;;;;3.85;1.77;;;;;;;7.70;39.52;99760.38;3527491;40;20047;-76
2021/05/05 03:42:35;;;;;;;4.13;1.80;;;;;;;7.67;39.60;99763.34;3531029;40;20035;-76
2021/05/05 03:45:05;;;;;;;3.03;1.60;;;;;;;7.66;39.69;99762.50;3531770;40;20067;-76
2021/05/05 03:47:33;;;;;;;3.60;1.90;;;;;;;7.63;39.75;99756.50;3531408;40;20114;-76
2021/05/05 03:50:01;;;;;;;3.78;2.10;;;;;;;7.63;39.54;99761.94;3538702;40;20129;-75
2021/05/05 03:52:28;;;;;;;4.38;2.58;;;;;;;7.61;39.72;99761.22;3537067;40;20066;-75
2021/05/05 03:54:57;;;;;;;3.47;2.08;;;;;;;7.63;39.83;99764.66;3527254;40;20061;-76
2021/05/05 03:57:24;;;;;;;4.43;2.15;;;;;;;7.61;39.88;99763.94;3525807;40;20440;-76
2021/05/05 03:59:53;;;;;;;4.68;2.20;;;;;;;7.61;39.86;99772.09;3531748;40;20046;-75
2021/05/05 04:02:20;;;;;;;4.88;2.40;;;;;;;7.59;40.28;99765.91;3535250;40;20031;-75
2021/05/05 04:04:47;;;;;;;4.55;2.17;;;;;;;7.60;39.99;99775.81;3528524;40;20126;-75
2021/05/05 04:07:14;;;;;;;3.72;2.00;;;;;;;7.59;40.06;99769.50;3528162;40;20129;-76
2021/05/05 04:09:42;;;;;;;4.18;2.30;;;;;;;7.60;40.13;99771.22;3529018;40;20114;-76
2021/05/05 04:12:12;;;;;;;4.72;2.70;;;;;;;7.61;40.19;99770.22;3533257;40;20396;-75
2021/05/05 04:14:39;;;;;;;4.35;2.25;;;;;;;7.62;40.04;99774.69;3533228;40;20050;-75
2021/05/05 04:17:25;;;;;;;5.35;2.40;;;;;;;7.61;40.12;99772.97;3527575;40;20059;-76
2021/05/05 04:20:12;;;;;;;4.93;2.25;;;;;;;7.60;39.95;99773.09;3532330;40;20086;-75
2021/05/05 04:22:57;;;;;;;5.03;2.50;;;;;;;7.57;40.11;99782.38;3534474;40;20050;-76
2021/05/05 04:25:42;;;;;;;4.18;2.55;;;;;;;7.56;40.26;99785.28;3530524;40;20412;-76
2021/05/05 04:28:10;;;;;;;5.25;2.33;;;;;;;7.56;40.19;99794.31;3530748;40;20410;-75
2021/05/05 04:30:38;;;;;;;5.72;2.67;;;;;;;7.55;40.14;99791.72;3532998;40;20054;-76
2021/05/05 04:33:05;;;;;;;4.78;2.28;;;;;;;7.53;40.24;99789.13;3530829;40;20051;-76
2021/05/05 04:35:33;;;;;;;5.00;2.38;;;;;;;7.52;40.12;99784.69;3533823;40;20341;-75
2021/05/05 04:38:00;;;;;;;4.85;2.72;;;;;;;7.53;40.33;99782.81;3530320;40;20101;-76
2021/05/05 04:40:28;;;;;;;5.07;2.70;;;;;;;7.54;40.44;99792.72;3531653;40;20487;-76
2021/05/05 04:42:55;;;;;;;6.32;2.90;;;;;;;7.52;40.40;99792.84;3528401;40;20051;-76
2021/05/05 04:45:23;;;;;;;4.45;2.53;;;;;;;7.52;40.48;99802.84;3530326;40;20054;-76
2021/05/05 04:47:51;;;;;;;5.18;2.70;;;;;;;7.50;40.44;99801.13;3528358;40;20142;-76
2021/05/05 04:50:18;;;;;;;5.07;2.80;;;;;;;7.50;40.51;99811.16;3529014;40;20039;-76
2021/05/05 04:52:46;;;;;;;4.90;2.60;;;;;;;7.52;40.62;99808.31;3533443;40;20061;-75
2021/05/05 04:55:14;;;;;;;6.70;2.70;;;;;;;7.52;40.60;99816.47;3525089;40;20060;-75
2021/05/05 04:57:41;;;;;;;5.30;3.13;;;;;;;7.51;40.82;99810.16;3529920;40;20087;-76
2021/05/05 05:00:09;;;;;;;6.28;3.03;;;;;;;7.52;40.87;99816.47;3533620;40;20138;-75
2021/05/05 05:02:38;;;;;;;6.03;2.83;;;;;;;7.54;40.93;99814.47;3532311;40;20156;-75
2021/05/05 05:05:06;;;;;;;5.90;3.13;;;;;;;7.52;40.68;99801.00;3527771;40;20138;-77
2021/05/05 05:07:35;;;;;;;5.50;2.83;;;;;;;7.51;40.50;99815.59;3533939;40;20309;-75
2021/05/05 05:10:03;;;;;;;4.95;2.90;;;;;;;7.53;41.03;99805.44;3531229;40;20050;-74
2021/05/05 05:12:31;;;;;;;5.72;3.05;;;;;;;7.53;40.64;99812.75;3533691;40;20047;-75
2021/05/05 05:14:59;;;;;;;5.07;2.90;;;;;;;7.51;41.08;99821.03;3534869;40;20320;-75
2021/05/05 05:17:26;;;;;;;5.25;3.03;;;;;;;7.51;41.06;99829.22;3530295;40;20047;-76
2021/05/05 05:19:54;;;;;;;5.10;2.90;;;;;;;7.54;41.10;99823.50;3532773;40;20548;-75
2021/05/05 05:22:21;;;;;;;5.40;2.63;;;;;;;7.52;40.75;99835.50;3534139;40;20055;-75
2021/05/05 05:24:49;;;;;;;5.30;2.95;;;;;;;7.54;41.03;99838.97;3532934;40;20066;-75
2021/05/05 05:27:16;;;;;;;5.45;2.70;;;;;;;7.54;40.93;99848.00;3541111;40;20083;-75
2021/05/05 05:29:43;;;;;;;5.43;2.85;;;;;;;7.55;41.22;99846.13;3532046;40;20062;-75
2021/05/05 05:32:11;;;;;;;5.05;2.80;;;;;;;7.57;41.08;99847.69;3530776;40;20098;-75
2021/05/05 05:34:39;;;;;;;3.78;2.25;;;;;;;7.55;41.15;99848.84;3539752;40;20428;-74
2021/05/05 05:37:07;;;;;;;4.93;2.90;;;;;;;7.58;41.19;99849.44;3536185;40;20062;-74
2021/05/05 05:39:34;;;;;;;5.80;2.78;;;;;;;7.57;41.10;99849.59;3534750;40;20047;-75
2021/05/05 05:42:02;;;;;;;5.68;3.13;;;;;;;7.58;41.22;99845.84;3529786;40;20069;-74
2021/05/05 05:44:30;;;;;;;6.25;2.78;;;;;;;7.60;41.11;99852.88;3532140;40;20066;-75
2021/05/05 05:46:57;;;;;;;3.75;2.40;;;;;;;7.61;41.27;99853.75;3530183;40;20130;-75
2021/05/05 05:49:25;;;;;;;5.60;2.85;;;;;;;7.66;41.40;99851.47;3529682;40;20397;-74
2021/05/05 05:51:56;;;;;;;5.15;2.55;;;;;;;7.67;41.58;99854.03;3534360;40;20094;-75
2021/05/05 05:54:24;;;;;;;4.50;2.50;;;;;;;7.72;41.35;99853.66;3530007;40;20087;-76
2021/05/05 05:56:53;;;;;;;4.40;2.60;;;;;;;7.72;41.23;99859.97;3529549;40;20086;-75
2021/05/05 05:59:21;;;;;;;5.10;2.67;;;;;;;7.79;41.42;99862.97;3534851;40;20051;-76
2021/05/05 06:01:49;;;;;;;4.75;3.05;;;;;;;7.81;41.44;99861.84;3531635;40;20050;-76
2021/05/05 06:04:17;;;;;;;5.38;2.75;;;;;;;7.83;41.30;99854.38;3533442;40;20316;-76
2021/05/05 06:06:45;;;;;;;5.72;2.47;;;;;;;7.85;41.26;99863.28;3531968;40;20051;-76
2021/05/05 06:09:12;;;;;;;4.55;3.05;;;;;;;7.87;41.37;99853.13;3525460;40;20147;-77
2021/05/05 06:11:41;;;;;;;6.68;3.15;;;;;;;7.93;41.44;99859.84;3528434;40;20102;-77
2021/05/05 06:14:14;;;;;;;5.30;2.85;;;;;;;7.94;41.20;99860.72;3531737;40;20035;-82
2021/05/05 06:17:08;;;;;;;6.05;2.95;;;;;;;7.92;41.05;99860.00;3532131;40;20126;-79
2021/05/05 06:19:35;;;;;;;5.05;2.83;;;;;;;7.95;41.38;99859.72;3531235;40;20063;-80
2021/05/05 06:22:03;;;;;;;5.20;2.90;;;;;;;8.00;41.32;99865.59;3521140;40;20065;-79
2021/05/05 06:24:31;;;;;;;6.05;2.95;;;;;;;8.02;41.37;99869.03;3521127;40;20114;-80
2021/05/05 06:26:59;;;;;;;5.95;3.38;;;;;;;8.05;41.45;99866.91;3525089;40;20050;-74
2021/05/05 06:29:26;;;;;;;6.28;2.97;;;;;;;8.05;41.51;99875.09;3529207;40;20058;-74
2021/05/05 06:31:53;;;;;;;6.40;3.13;;;;;;;8.08;41.44;99874.78;3532227;40;20075;-74
2021/05/05 06:34:21;;;;;;;4.80;2.75;;;;;;;8.12;41.30;99851.72;3530326;40;20032;-80
2021/05/05 06:36:48;;;;;;;7.95;3.63;;;;;;;8.17;41.22;99863.06;3530318;40;20048;-79
2021/05/05 06:39:15;;;;;;;5.85;2.90;;;;;;;8.19;41.21;99873.81;3538522;40;20043;-78
2021/05/05 06:41:43;;;;;;;6.30;2.90;;;;;;;8.18;41.32;99870.22;3537827;40;20035;-78
2021/05/05 06:44:11;;;;;;;6.38;3.40;;;;;;;8.21;41.19;99883.56;3530581;40;20038;-78
2021/05/05 06:46:42;;;;;;;4.40;2.95;;;;;;;8.19;41.41;99891.03;3529880;40;20119;-78
2021/05/05 06:49:10;;;;;;;5.07;3.22;;;;;;;8.18;41.50;99896.59;3530647;40;20129;-77
2021/05/05 06:51:38;;;;;;;7.10;2.60;;;;;;;8.17;41.51;99898.47;3532992;40;20396;-76
2021/05/05 06:54:07;;;;;;;4.70;2.70;;;;;;;8.18;41.50;99910.22;3533385;40;20325;-77
2021/05/05 06:56:34;;;;;;;5.43;2.70;;;;;;;8.17;41.73;99913.94;3529121;40;20047;-76
2021/05/05 06:59:02;;;;;;;4.20;2.40;;;;;;;8.17;41.60;99912.09;3532184;40;20063;-77
2021/05/05 07:01:32;;;;;;;4.05;1.85;;;;;;;8.18;41.48;99930.16;3525389;40;20062;-73
2021/05/05 07:03:59;;;;;;;2.95;1.52;;;;;;;8.15;41.33;99938.59;3527296;40;20063;-75
2021/05/05 07:06:28;;;;;;;3.22;1.63;;;;;;;8.12;41.21;99940.75;3530591;40;20136;-74
2021/05/05 07:09:01;;;;;;;2.63;1.63;;;;;;;8.07;41.12;99935.72;3538696;40;20057;-74
2021/05/05 07:11:32;;;;;;;3.25;1.55;;;;;;;8.05;41.03;99931.41;3529401;40;20062;-74
2021/05/05 07:13:59;;;;;;;2.90;1.55;;;;;;;7.98;41.05;99925.69;3532914;40;20075;-73
2021/05/05 07:16:26;;;;;;;2.63;1.60;;;;;;;7.90;41.09;99924.63;3540713;40;20144;-74
2021/05/05 07:18:55;;;;;;;2.63;1.33;;;;;;;7.87;41.11;99934.81;3528491;40;20095;-73
2021/05/05 07:21:23;;;;;;;2.63;1.70;;;;;;;7.81;41.44;99942.66;3519224;40;20063;-74
2021/05/05 07:23:50;;;;;;;2.85;1.55;;;;;;;7.75;41.20;99932.28;3531578;40;20071;-74
2021/05/05 07:26:17;;;;;;;4.30;1.75;;;;;;;7.74;41.34;99936.88;3521516;40;20066;-72
2021/05/05 07:28:46;;;;;;;4.05;2.05;;;;;;;7.70;41.21;99943.59;3530326;40;20055;-73
2021/05/05 07:31:13;;;;;;;2.97;1.85;;;;;;;7.65;41.33;99937.72;3539788;40;20055;-73
2021/05/05 07:33:53;;;;;;;3.72;2.17;;;;;;;7.66;42.07;99939.41;3531228;40;20051;-74
2021/05/05 07:36:26;;;;;;;4.15;2.25;;;;;;;7.61;41.84;99935.41;3536237;40;20089;-76
2021/05/05 07:39:19;;;;;;;3.70;2.13;;;;;;;7.59;41.92;99932.81;3528524;40;20062;-74
2021/05/05 07:47:27;;;;;;;3.60;2.38;;;;;;;7.56;42.29;99967.59;3529943;40;20082;-76
2021/05/05 07:49:56;;;;;;;3.63;1.70;;;;;;;7.58;42.15;99955.56;3526778;40;20121;-75
2021/05/05 07:52:23;;;;;;;3.28;1.50;;;;;;;7.59;41.96;99962.75;3523671;40;20083;-75
2021/05/05 07:54:51;;;;;;;2.15;1.27;;;;;;;7.57;42.20;99962.00;3527635;40;20099;-76
2021/05/05 07:57:19;;;;;;;2.92;1.23;;;;;;;7.59;42.16;99954.56;3537105;40;20130;-73
2021/05/05 07:59:46;;;;;;;1.33;1.10;;;;;;;7.60;42.07;99966.31;3528227;40;20518;-73
2021/05/05 08:02:14;;;;;;;2.28;1.17;;;;;;;7.59;41.99;99973.63;3528944;40;20036;-75
2021/05/05 08:04:49;;;;;;;1.55;1.10;;;;;;;7.57;42.00;99974.78;3523119;40;20138;-74
2021/05/05 08:07:18;;;;;;;1.88;1.10;;;;;;;7.54;41.75;99986.78;3523365;40;20058;-74
2021/05/05 08:09:53;;;;;;;3.00;1.30;;;;;;;7.52;42.08;99987.91;3533490;40;20051;-74
2021/05/05 08:12:20;;;;;;;2.55;1.33;;;;;;;7.45;42.12;99988.47;3532210;40;20073;-73
2021/05/05 08:14:51;;;;;;;1.17;0.95;;;;;;;7.44;42.20;99996.75;3538257;40;20039;-76
2021/05/05 08:17:19;;;;;;;2.60;1.05;;;;;;;7.41;42.21;99997.00;3528590;40;20138;-75
2021/05/05 08:19:47;;;;;;;2.42;1.30;;;;;;;7.41;42.47;100002.44;3528654;40;20141;-76
2021/05/05 08:22:15;;;;;;;3.05;1.40;;;;;;;7.41;42.67;100007.88;3529479;40;20050;-74
2021/05/05 08:24:43;;;;;;;1.63;1.20;;;;;;;7.42;42.55;100006.91;3532869;40;20289;-74
2021/05/05 08:27:11;;;;;;;2.13;1.38;;;;;;;7.43;42.33;100023.09;3533188;40;20051;-75
2021/05/05 08:29:39;;;;;;;1.83;1.33;;;;;;;7.44;42.96;100018.50;3531898;40;20304;-74
2021/05/05 08:32:15;;;;;;;3.25;1.58;;;;;;;7.52;43.53;100021.44;3537778;40;20418;-74
2021/05/05 08:34:44;;;;;;;2.10;1.42;;;;;;;7.52;43.35;100018.72;3533808;40;20055;-75
2021/05/05 08:37:11;;;;;;;2.67;1.70;;;;;;;7.58;43.66;100020.88;3535023;40;20047;-74
2021/05/05 08:39:40;;;;;;;2.80;1.60;;;;;;;7.66;43.97;100012.91;3539846;40;20050;-74
2021/05/05 08:42:07;;;;;;;3.42;1.70;;;;;;;7.74;43.91;100017.69;3539345;40;20327;-76
2021/05/05 08:44:36;;;;;;;3.22;1.60;;;;;;;7.86;43.96;100022.06;3529862;40;20063;-73
2021/05/05 08:47:04;;;;;;;2.40;1.70;;;;;;;7.94;44.00;100021.38;3529545;40;20063;-73
2021/05/05 08:49:32;;;;;;;2.45;1.60;;;;;;;8.05;44.09;100022.16;3530547;40;20030;-74
2021/05/05 08:52:00;;;;;;;3.42;1.60;;;;;;;8.17;44.10;100020.19;3522372;40;20084;-75
2021/05/05 08:54:27;;;;;;;2.80;1.33;;;;;;;8.32;43.99;100034.28;3525134;40;20054;-75
2021/05/05 08:56:56;;;;;;;2.97;1.58;;;;;;;8.43;43.99;100029.66;3520295;40;20066;-75
2021/05/05 08:59:23;;;;;;;3.63;1.52;;;;;;;8.57;43.81;100036.56;3525266;40;20419;-74
2021/05/05 09:01:51;;;;;;;4.55;1.75;;;;;;;8.73;43.83;100031.44;3533324;40;20091;-73
2021/05/05 09:04:19;;;;;;;3.25;1.70;;;;;;;8.82;43.29;100036.03;3536260;40;20404;-73
2021/05/05 09:06:51;;;;;;;2.63;1.40;;;;;;;8.95;42.99;100028.47;3530189;40;20054;-74
2021/05/05 09:09:39;;;;;;;2.42;1.60;;;;;;;9.07;42.54;100037.34;3530525;40;20134;-76
2021/05/05 09:12:19;;;;;;;2.83;1.40;;;;;;;9.17;42.16;100032.78;3527107;40;20400;-78
2021/05/05 09:14:59;;;;;;;3.75;1.60;;;;;;;9.28;41.81;100042.69;3532812;40;20377;-77
2021/05/05 09:17:29;;;;;;;3.22;1.50;;;;;;;9.36;41.44;100051.00;3528493;40;20050;-75
2021/05/05 09:20:17;;;;;;;3.38;1.92;;;;;;;9.44;41.36;100044.84;3528046;40;20047;-75
2021/05/05 09:22:48;;;;;;;4.65;1.90;;;;;;;9.49;41.14;100050.69;3540285;40;20066;-75
2021/05/05 09:25:17;;;;;;;3.30;1.75;;;;;;;9.55;40.99;100063.75;3532421;40;20055;-74
2021/05/05 09:28:08;;;;;;;4.50;1.77;;;;;;;9.61;40.07;100047.69;3528926;40;20059;-74
2021/05/05 09:30:36;;;;;;;3.92;1.77;;;;;;;9.65;40.73;100051.84;3524098;40;20068;-73
2021/05/05 09:33:05;;;;;;;4.53;2.10;;;;;;;9.72;40.26;100057.59;3533229;40;20393;-74
2021/05/05 09:35:35;;;;;;;5.15;2.65;;;;;;;9.76;39.69;100056.31;3535831;40;20090;-74
2021/05/05 09:38:06;;;;;;;4.47;1.90;;;;;;;9.77;39.75;100063.50;3524469;40;20149;-74
2021/05/05 09:40:34;;;;;;;4.30;2.08;;;;;;;9.77;39.83;100077.16;3530544;40;20130;-76
2021/05/05 09:43:16;;;;;;;5.40;2.00;;;;;;;9.79;40.01;100074.28;3530089;40;20094;-76
2021/05/05 09:45:44;;;;;;;3.83;2.00;;;;;;;9.75;39.67;100077.31;3527394;40;20389;-75
2021/05/05 09:48:21;;;;;;;3.85;1.83;;;;;;;9.78;39.59;100089.81;3528935;40;20059;-75
2021/05/05 09:50:48;;;;;;;4.75;1.90;;;;;;;9.79;39.50;100087.94;3536656;40;20087;-73
2021/05/05 09:53:21;;;;;;;3.28;1.88;;;;;;;9.82;39.31;100083.03;3538986;40;20098;-74
2021/05/05 09:56:08;;;;;;;4.70;2.00;;;;;;;9.87;39.14;100085.34;3527678;40;20297;-76
2021/05/05 09:58:37;;;;;;;3.50;2.00;;;;;;;9.90;39.21;100091.34;3524454;40;22089;-79
2021/05/05 10:01:21;;;;;;;4.18;1.85;;;;;;;9.94;39.08;100084.59;3528689;40;20058;-77
2021/05/05 10:03:52;;;;;;;3.92;2.00;;;;;;;10.00;39.40;100083.13;3530642;40;20166;-76
2021/05/05 10:06:25;;;;;;;6.18;2.15;;;;;;;10.09;38.84;100088.59;3529022;40;20059;-75
2021/05/05 10:08:54;;;;;;;5.93;2.20;;;;;;;10.14;38.96;100082.66;3535056;40;20340;-76
2021/05/05 10:11:24;;;;;;;5.82;2.28;;;;;;;10.23;38.61;100094.56;3530752;40;20038;-74
2021/05/05 10:13:57;;;;;;;3.65;2.15;;;;;;;10.29;38.36;100099.47;3532751;40;20293;-75
2021/05/05 10:16:26;;;;;;;4.35;1.90;;;;;;;10.32;38.11;100104.63;3528801;40;20065;-76
2021/05/05 10:18:54;;;;;;;4.18;2.17;;;;;;;10.35;37.93;100093.41;3525517;40;20385;-76
2021/05/05 10:21:25;;;;;;;4.95;2.20;;;;;;;10.38;37.74;100102.16;3540429;40;20030;-76
2021/05/05 10:23:56;;;;;;;4.10;1.90;;;;;;;10.40;37.44;100112.94;3530058;40;20649;-76
2021/05/05 10:26:25;;;;;;;3.22;1.90;;;;;;;10.42;37.27;100121.84;3535295;40;20046;-75
2021/05/05 10:28:53;;;;;;;6.05;2.20;;;;;;;10.41;36.86;100123.72;3536746;40;20066;-76
2021/05/05 10:31:23;;;;;;;5.13;1.60;;;;;;;10.39;36.73;100122.16;3528198;40;20262;-75
2021/05/05 10:33:57;;;;;;;4.22;2.33;;;;;;;10.37;36.70;100130.50;3522427;40;20312;-75
2021/05/05 10:36:37;;;;;;;3.03;1.60;;;;;;;10.37;36.08;100146.91;3528118;40;20096;-75
2021/05/05 10:39:31;;;;;;;3.97;1.65;;;;;;;10.30;36.42;100148.50;3526860;40;20424;-75
2021/05/05 10:42:05;;;;;;;2.53;1.70;;;;;;;10.31;36.18;100147.50;3528746;40;20411;-75
2021/05/05 10:44:34;;;;;;;4.05;1.65;;;;;;;10.29;36.85;100149.50;3533845;40;20389;-75
2021/05/05 10:47:15;;;;;;;4.45;1.80;;;;;;;10.32;36.37;100140.16;3519893;40;20055;-75
2021/05/05 10:50:08;;;;;;;2.78;1.65;;;;;;;10.29;36.68;100152.25;3539659;40;20046;-75
2021/05/05 10:53:07;;;;;;;3.20;1.80;;;;;;;10.35;36.50;100146.19;3532298;40;20353;-75
2021/05/05 10:55:43;;;;;;;3.25;1.88;;;;;;;10.43;36.83;100156.41;3526474;40;20051;-76
2021/05/05 10:58:14;;;;;;;4.10;2.10;;;;;;;10.52;37.00;100148.16;3524941;40;20074;-75
2021/05/05 11:00:50;;;;;;;4.88;2.42;;;;;;;10.63;36.63;100159.91;3527160;40;20065;-76
2021/05/05 11:03:18;;;;;;;4.50;2.20;;;;;;;10.69;36.49;100149.25;3527723;40;20435;-75
2021/05/05 11:05:48;;;;;;;4.13;1.98;;;;;;;10.75;36.39;100165.06;3532668;40;20051;-76
2021/05/05 11:08:26;;;;;;;5.93;2.45;;;;;;;10.86;35.78;100166.78;3533082;40;20138;-76
2021/05/05 11:10:55;;;;;;;4.78;2.15;;;;;;;10.89;35.86;100177.41;3532023;40;20058;-75
2021/05/05 11:13:41;;;;;;;2.40;1.42;;;;;;;10.95;35.33;100181.44;3528974;40;20055;-76
2021/05/05 11:16:09;;;;;;;3.35;1.80;;;;;;;10.96;35.43;100189.47;3530233;40;20067;-76
2021/05/05 11:18:47;;;;;;;3.83;1.63;;;;;;;11.00;35.18;100192.78;3527660;40;20051;-74
2021/05/05 11:21:43;;;;;;;3.25;1.73;;;;;;;11.00;34.93;100181.81;3526120;40;20064;-74
2021/05/05 11:24:34;;;;;;;5.72;1.63;;;;;;;10.99;34.97;100197.38;3529327;40;20054;-74
2021/05/05 11:27:02;;;;;;;4.30;1.75;;;;;;;11.01;35.24;100191.75;3537999;40;20058;-76
2021/05/05 11:29:32;;;;;;;4.28;1.70;;;;;;;11.05;35.22;100183.09;3529711;40;20055;-74
2021/05/05 11:32:01;;;;;;;4.63;1.83;;;;;;;11.09;35.31;100200.94;3535663;40;20027;-75
2021/05/05 11:34:31;;;;;;;2.63;1.20;;;;;;;11.14;35.56;100203.22;3529165;40;20047;-78
2021/05/05 11:37:20;;;;;;;3.78;1.80;;;;;;;11.23;35.14;100207.78;3533638;40;20079;-76
2021/05/05 11:39:51;;;;;;;2.75;1.52;;;;;;;11.27;35.23;100237.44;3530047;40;20405;-79
2021/05/05 11:42:20;;;;;;;3.60;1.70;;;;;;;11.34;35.21;100234.97;3529602;40;20042;-74
2021/05/05 11:45:10;;;;;;;2.25;1.17;;;;;;;11.37;34.93;100228.28;3529339;40;20106;-73
2021/05/05 11:47:40;;;;;;;3.53;1.30;;;;;;;11.38;34.53;100238.22;3536928;40;20073;-73
2021/05/05 11:50:12;;;;;;;2.45;1.10;;;;;;;11.39;34.42;100243.56;3512302;40;713613;-77
2021/05/05 11:52:42;;;;;;;4.00;1.33;;;;;;;11.44;34.30;100251.34;3533439;40;20114;-74
2021/05/05 11:59:30;;;;;;;3.20;1.23;;;;;;;11.47;34.81;100245.53;3522490;40;20070;-74
2021/05/05 12:02:03;;;;;;;3.55;1.55;;;;;;;11.59;34.05;100238.84;3527516;40;20089;-76
2021/05/05 12:04:37;;;;;;;3.78;1.40;;;;;;;11.65;34.08;100252.78;3520558;40;20036;-77